Frankenmuth, Michigan
Current Conditions -  °F | °C
As of 2:14 AM on Thursday 23 Oct 2014 (Local Time) from KHYX Reporting Station
Clear Clear  
Wind Chill: 34°   Ceiling: Unl
Heat Index: 34°   Visibility: 10mi
Dew Point: 34°   Wind: 0mph
Humidity: 100%   Direction: NA
Pressure: 30.28"   Gusts: NA
Location:  43.33°N, 83.74°W
Report Text: KHYX 230614Z AUTO 00000KT 10SM CLR 01/01 A3028 RMK AO2
Loading
Personal Weather Stations






























Interactive Weather Map
Tropical Storm Tracking
New forecast layout! Learn more

10-Day Weather Forecast

Advertisements
Track Severe Weather on mobile